sensor_id;sensor_type;location;lat;lon;timestamp;temperature;humidity
37678;DHT22;23517;50.390;8.616;2022-07-06T00:00:05;14.90;50.70
37678;DHT22;23517;50.390;8.616;2022-07-06T00:02:33;14.90;50.90
37678;DHT22;23517;50.390;8.616;2022-07-06T00:05:00;14.90;51.00
37678;DHT22;23517;50.390;8.616;2022-07-06T00:07:26;14.80;51.20
37678;DHT22;23517;50.390;8.616;2022-07-06T00:09:53;14.80;51.40
37678;DHT22;23517;50.390;8.616;2022-07-06T00:12:20;14.80;51.40
37678;DHT22;23517;50.390;8.616;2022-07-06T00:14:47;14.80;51.40
37678;DHT22;23517;50.390;8.616;2022-07-06T00:17:15;14.80;51.60
37678;DHT22;23517;50.390;8.616;2022-07-06T00:19:42;14.90;51.60
37678;DHT22;23517;50.390;8.616;2022-07-06T00:22:08;15.00;51.40
37678;DHT22;23517;50.390;8.616;2022-07-06T00:24:35;15.00;51.20
37678;DHT22;23517;50.390;8.616;2022-07-06T00:27:02;15.00;51.20
37678;DHT22;23517;50.390;8.616;2022-07-06T00:29:29;14.90;51.40
37678;DHT22;23517;50.390;8.616;2022-07-06T00:31:57;14.90;51.50
37678;DHT22;23517;50.390;8.616;2022-07-06T00:34:24;14.90;51.80
37678;DHT22;23517;50.390;8.616;2022-07-06T00:36:50;14.70;52.20
37678;DHT22;23517;50.390;8.616;2022-07-06T00:39:17;14.60;52.40
37678;DHT22;23517;50.390;8.616;2022-07-06T00:41:45;14.60;52.80
37678;DHT22;23517;50.390;8.616;2022-07-06T00:44:12;14.60;52.80
37678;DHT22;23517;50.390;8.616;2022-07-06T00:46:39;14.40;53.30
37678;DHT22;23517;50.390;8.616;2022-07-06T00:49:05;14.30;54.00
37678;DHT22;23517;50.390;8.616;2022-07-06T00:51:52;14.10;54.70
37678;DHT22;23517;50.390;8.616;2022-07-06T00:54:19;14.10;54.90
37678;DHT22;23517;50.390;8.616;2022-07-06T00:56:46;14.10;54.90
37678;DHT22;23517;50.390;8.616;2022-07-06T00:59:12;14.10;55.50
37678;DHT22;23517;50.390;8.616;2022-07-06T01:01:39;14.10;55.20
37678;DHT22;23517;50.390;8.616;2022-07-06T01:04:06;14.10;55.10
37678;DHT22;23517;50.390;8.616;2022-07-06T01:06:32;14.00;55.60
37678;DHT22;23517;50.390;8.616;2022-07-06T01:08:59;14.00;55.70
37678;DHT22;23517;50.390;8.616;2022-07-06T01:11:26;14.00;56.00
37678;DHT22;23517;50.390;8.616;2022-07-06T01:13:54;14.00;56.20
37678;DHT22;23517;50.390;8.616;2022-07-06T01:16:23;13.90;56.60
37678;DHT22;23517;50.390;8.616;2022-07-06T01:18:50;13.90;56.60
37678;DHT22;23517;50.390;8.616;2022-07-06T01:21:17;13.90;56.50
37678;DHT22;23517;50.390;8.616;2022-07-06T01:23:46;13.90;57.50
37678;DHT22;23517;50.390;8.616;2022-07-06T01:26:19;13.90;56.60
37678;DHT22;23517;50.390;8.616;2022-07-06T01:28:49;13.90;57.20
37678;DHT22;23517;50.390;8.616;2022-07-06T01:31:22;13.90;57.10
37678;DHT22;23517;50.390;8.616;2022-07-06T01:33:52;13.90;57.50
37678;DHT22;23517;50.390;8.616;2022-07-06T01:36:23;13.80;57.10
37678;DHT22;23517;50.390;8.616;2022-07-06T01:38:52;13.80;57.30
37678;DHT22;23517;50.390;8.616;2022-07-06T01:41:20;13.80;57.30
37678;DHT22;23517;50.390;8.616;2022-07-06T01:43:47;13.80;57.40
37678;DHT22;23517;50.390;8.616;2022-07-06T01:46:15;13.80;57.50
37678;DHT22;23517;50.390;8.616;2022-07-06T01:48:42;13.80;57.90
37678;DHT22;23517;50.390;8.616;2022-07-06T01:51:11;13.80;57.80
37678;DHT22;23517;50.390;8.616;2022-07-06T01:53:38;13.70;58.20
37678;DHT22;23517;50.390;8.616;2022-07-06T01:56:05;13.60;58.40
37678;DHT22;23517;50.390;8.616;2022-07-06T01:58:32;13.70;58.60
37678;DHT22;23517;50.390;8.616;2022-07-06T02:00:59;13.70;58.50
37678;DHT22;23517;50.390;8.616;2022-07-06T02:03:27;13.80;58.50
37678;DHT22;23517;50.390;8.616;2022-07-06T02:05:53;13.80;58.40
37678;DHT22;23517;50.390;8.616;2022-07-06T02:08:20;13.80;58.40
37678;DHT22;23517;50.390;8.616;2022-07-06T02:10:47;13.90;58.30
37678;DHT22;23517;50.390;8.616;2022-07-06T02:13:14;13.90;58.20
37678;DHT22;23517;50.390;8.616;2022-07-06T02:15:41;14.10;58.00
37678;DHT22;23517;50.390;8.616;2022-07-06T02:18:08;14.10;57.80
37678;DHT22;23517;50.390;8.616;2022-07-06T02:20:34;14.20;57.70
37678;DHT22;23517;50.390;8.616;2022-07-06T02:23:01;14.20;57.60
37678;DHT22;23517;50.390;8.616;2022-07-06T02:25:28;14.30;57.20
37678;DHT22;23517;50.390;8.616;2022-07-06T02:27:55;14.40;57.10
37678;DHT22;23517;50.390;8.616;2022-07-06T02:30:22;14.40;56.80
37678;DHT22;23517;50.390;8.616;2022-07-06T02:32:49;14.40;56.50
37678;DHT22;23517;50.390;8.616;2022-07-06T02:35:16;14.50;56.50
37678;DHT22;23517;50.390;8.616;2022-07-06T02:37:43;14.50;56.30
37678;DHT22;23517;50.390;8.616;2022-07-06T02:40:10;14.50;56.30
37678;DHT22;23517;50.390;8.616;2022-07-06T02:42:37;14.60;56.10
37678;DHT22;23517;50.390;8.616;2022-07-06T02:45:04;14.60;56.10
37678;DHT22;23517;50.390;8.616;2022-07-06T02:47:31;14.60;56.10
37678;DHT22;23517;50.390;8.616;2022-07-06T02:49:58;14.60;56.00
37678;DHT22;23517;50.390;8.616;2022-07-06T02:52:25;14.60;55.90
37678;DHT22;23517;50.390;8.616;2022-07-06T02:54:52;14.60;55.80
37678;DHT22;23517;50.390;8.616;2022-07-06T02:57:19;14.60;55.60
37678;DHT22;23517;50.390;8.616;2022-07-06T02:59:46;14.60;55.40
37678;DHT22;23517;50.390;8.616;2022-07-06T03:02:12;14.60;55.20
37678;DHT22;23517;50.390;8.616;2022-07-06T03:04:39;14.70;55.20
37678;DHT22;23517;50.390;8.616;2022-07-06T03:07:06;14.70;54.90
37678;DHT22;23517;50.390;8.616;2022-07-06T03:09:34;14.70;54.70
37678;DHT22;23517;50.390;8.616;2022-07-06T03:12:01;14.70;54.50
37678;DHT22;23517;50.390;8.616;2022-07-06T03:14:28;14.80;54.50
37678;DHT22;23517;50.390;8.616;2022-07-06T03:16:55;14.80;54.30
37678;DHT22;23517;50.390;8.616;2022-07-06T03:19:22;14.80;54.40
37678;DHT22;23517;50.390;8.616;2022-07-06T03:21:49;14.70;54.50
37678;DHT22;23517;50.390;8.616;2022-07-06T03:24:15;14.70;54.60
37678;DHT22;23517;50.390;8.616;2022-07-06T03:26:42;14.70;54.40
37678;DHT22;23517;50.390;8.616;2022-07-06T03:29:09;14.70;54.40
37678;DHT22;23517;50.390;8.616;2022-07-06T03:31:36;14.70;54.50
37678;DHT22;23517;50.390;8.616;2022-07-06T03:34:02;14.70;54.40
37678;DHT22;23517;50.390;8.616;2022-07-06T03:36:29;14.60;54.40
37678;DHT22;23517;50.390;8.616;2022-07-06T03:39:04;14.60;54.40
37678;DHT22;23517;50.390;8.616;2022-07-06T03:41:31;14.60;54.40
37678;DHT22;23517;50.390;8.616;2022-07-06T03:43:59;14.60;54.50
37678;DHT22;23517;50.390;8.616;2022-07-06T03:46:26;14.60;54.50
37678;DHT22;23517;50.390;8.616;2022-07-06T03:48:53;14.60;54.60
37678;DHT22;23517;50.390;8.616;2022-07-06T03:51:20;14.60;54.60
37678;DHT22;23517;50.390;8.616;2022-07-06T03:53:46;14.50;54.60
37678;DHT22;23517;50.390;8.616;2022-07-06T03:56:13;14.60;54.60
37678;DHT22;23517;50.390;8.616;2022-07-06T03:59:00;14.60;54.80
37678;DHT22;23517;50.390;8.616;2022-07-06T04:01:27;14.60;54.60
37678;DHT22;23517;50.390;8.616;2022-07-06T04:03:55;14.70;54.40
37678;DHT22;23517;50.390;8.616;2022-07-06T04:06:21;14.80;54.30
37678;DHT22;23517;50.390;8.616;2022-07-06T04:08:48;14.80;54.00
37678;DHT22;23517;50.390;8.616;2022-07-06T04:11:17;14.90;54.00
37678;DHT22;23517;50.390;8.616;2022-07-06T04:13:44;14.90;53.70
37678;DHT22;23517;50.390;8.616;2022-07-06T04:16:11;15.00;53.70
37678;DHT22;23517;50.390;8.616;2022-07-06T04:18:38;15.00;53.60
37678;DHT22;23517;50.390;8.616;2022-07-06T04:21:04;15.00;53.40
37678;DHT22;23517;50.390;8.616;2022-07-06T04:23:31;15.10;53.40
37678;DHT22;23517;50.390;8.616;2022-07-06T04:25:58;15.20;53.00
37678;DHT22;23517;50.390;8.616;2022-07-06T04:28:25;15.20;52.80
37678;DHT22;23517;50.390;8.616;2022-07-06T04:30:52;15.20;52.80
37678;DHT22;23517;50.390;8.616;2022-07-06T04:33:19;15.20;52.80
37678;DHT22;23517;50.390;8.616;2022-07-06T04:35:46;15.20;52.70
37678;DHT22;23517;50.390;8.616;2022-07-06T04:38:13;15.30;52.80
37678;DHT22;23517;50.390;8.616;2022-07-06T04:40:39;15.20;52.80
37678;DHT22;23517;50.390;8.616;2022-07-06T04:43:06;15.20;53.30
37678;DHT22;23517;50.390;8.616;2022-07-06T04:45:33;15.20;53.00
37678;DHT22;23517;50.390;8.616;2022-07-06T04:48:00;15.20;53.20
37678;DHT22;23517;50.390;8.616;2022-07-06T04:50:29;15.20;53.40
37678;DHT22;23517;50.390;8.616;2022-07-06T04:53:01;15.20;53.20
37678;DHT22;23517;50.390;8.616;2022-07-06T04:55:28;15.20;53.30
37678;DHT22;23517;50.390;8.616;2022-07-06T04:57:55;15.20;53.60
37678;DHT22;23517;50.390;8.616;2022-07-06T05:00:22;15.20;53.50
37678;DHT22;23517;50.390;8.616;2022-07-06T05:02:49;15.20;53.60
37678;DHT22;23517;50.390;8.616;2022-07-06T05:05:17;15.10;53.70
37678;DHT22;23517;50.390;8.616;2022-07-06T05:07:43;15.20;53.60
37678;DHT22;23517;50.390;8.616;2022-07-06T05:10:11;15.30;53.40
37678;DHT22;23517;50.390;8.616;2022-07-06T05:12:38;15.30;53.20
37678;DHT22;23517;50.390;8.616;2022-07-06T05:15:07;15.50;52.90
37678;DHT22;23517;50.390;8.616;2022-07-06T05:17:34;15.60;52.40
37678;DHT22;23517;50.390;8.616;2022-07-06T05:20:01;15.50;52.70
37678;DHT22;23517;50.390;8.616;2022-07-06T05:22:27;15.70;52.90
37678;DHT22;23517;50.390;8.616;2022-07-06T05:24:54;15.90;52.30
37678;DHT22;23517;50.390;8.616;2022-07-06T05:27:21;16.20;50.80
37678;DHT22;23517;50.390;8.616;2022-07-06T05:29:47;16.40;50.30
37678;DHT22;23517;50.390;8.616;2022-07-06T05:32:14;16.60;50.00
37678;DHT22;23517;50.390;8.616;2022-07-06T05:34:41;16.80;48.20
37678;DHT22;23517;50.390;8.616;2022-07-06T05:37:07;16.90;48.40
37678;DHT22;23517;50.390;8.616;2022-07-06T05:39:34;17.00;47.60
37678;DHT22;23517;50.390;8.616;2022-07-06T05:42:01;17.30;46.60
37678;DHT22;23517;50.390;8.616;2022-07-06T05:44:28;17.60;46.10
37678;DHT22;23517;50.390;8.616;2022-07-06T05:46:55;17.90;45.40
37678;DHT22;23517;50.390;8.616;2022-07-06T05:49:41;18.30;43.40
37678;DHT22;23517;50.390;8.616;2022-07-06T05:52:26;18.60;42.20
37678;DHT22;23517;50.390;8.616;2022-07-06T05:54:53;19.00;40.90
37678;DHT22;23517;50.390;8.616;2022-07-06T05:57:20;19.00;41.20
37678;DHT22;23517;50.390;8.616;2022-07-06T05:59:47;19.30;39.60
37678;DHT22;23517;50.390;8.616;2022-07-06T06:02:13;19.20;39.60
37678;DHT22;23517;50.390;8.616;2022-07-06T06:04:40;18.70;41.30
37678;DHT22;23517;50.390;8.616;2022-07-06T06:07:07;18.70;41.20
37678;DHT22;23517;50.390;8.616;2022-07-06T06:09:33;19.20;39.80
37678;DHT22;23517;50.390;8.616;2022-07-06T06:12:00;20.40;38.00
37678;DHT22;23517;50.390;8.616;2022-07-06T06:14:27;22.20;34.60
37678;DHT22;23517;50.390;8.616;2022-07-06T06:16:53;23.50;30.40
37678;DHT22;23517;50.390;8.616;2022-07-06T06:19:20;25.10;27.20
37678;DHT22;23517;50.390;8.616;2022-07-06T06:21:47;25.20;27.10
37678;DHT22;23517;50.390;8.616;2022-07-06T06:24:16;25.10;27.60
37678;DHT22;23517;50.390;8.616;2022-07-06T06:26:42;25.90;25.50
37678;DHT22;23517;50.390;8.616;2022-07-06T06:29:09;26.30;24.20
37678;DHT22;23517;50.390;8.616;2022-07-06T06:31:36;26.70;23.90
37678;DHT22;23517;50.390;8.616;2022-07-06T06:34:07;26.60;23.80
37678;DHT22;23517;50.390;8.616;2022-07-06T06:36:34;26.60;23.20
37678;DHT22;23517;50.390;8.616;2022-07-06T06:39:01;27.10;23.00
37678;DHT22;23517;50.390;8.616;2022-07-06T06:41:28;26.80;22.20
37678;DHT22;23517;50.390;8.616;2022-07-06T06:43:55;27.80;21.30
37678;DHT22;23517;50.390;8.616;2022-07-06T06:46:22;28.90;19.30
37678;DHT22;23517;50.390;8.616;2022-07-06T06:48:49;28.80;18.90
37678;DHT22;23517;50.390;8.616;2022-07-06T06:51:15;28.20;19.60
37678;DHT22;23517;50.390;8.616;2022-07-06T06:53:42;28.70;19.50
37678;DHT22;23517;50.390;8.616;2022-07-06T06:56:09;29.40;18.00
37678;DHT22;23517;50.390;8.616;2022-07-06T06:58:36;30.20;17.80
37678;DHT22;23517;50.390;8.616;2022-07-06T07:01:23;30.60;16.70
37678;DHT22;23517;50.390;8.616;2022-07-06T07:03:50;29.70;16.50
37678;DHT22;23517;50.390;8.616;2022-07-06T07:06:18;29.30;18.40
37678;DHT22;23517;50.390;8.616;2022-07-06T07:08:45;29.60;16.90
37678;DHT22;23517;50.390;8.616;2022-07-06T07:11:11;29.80;17.40
37678;DHT22;23517;50.390;8.616;2022-07-06T07:13:38;30.10;17.20
37678;DHT22;23517;50.390;8.616;2022-07-06T07:16:06;31.30;16.20
37678;DHT22;23517;50.390;8.616;2022-07-06T07:18:32;31.00;16.30
37678;DHT22;23517;50.390;8.616;2022-07-06T07:20:59;30.80;15.90
37678;DHT22;23517;50.390;8.616;2022-07-06T07:23:26;30.20;16.70
37678;DHT22;23517;50.390;8.616;2022-07-06T07:25:53;30.50;16.50
37678;DHT22;23517;50.390;8.616;2022-07-06T07:28:20;30.10;17.40
37678;DHT22;23517;50.390;8.616;2022-07-06T07:30:47;30.50;15.30
37678;DHT22;23517;50.390;8.616;2022-07-06T07:33:14;29.90;15.80
37678;DHT22;23517;50.390;8.616;2022-07-06T07:35:41;30.20;15.90
37678;DHT22;23517;50.390;8.616;2022-07-06T07:38:07;30.10;16.60
37678;DHT22;23517;50.390;8.616;2022-07-06T07:40:34;30.20;16.00
37678;DHT22;23517;50.390;8.616;2022-07-06T07:43:02;29.50;16.70
37678;DHT22;23517;50.390;8.616;2022-07-06T07:45:29;28.90;18.20
37678;DHT22;23517;50.390;8.616;2022-07-06T07:47:56;30.00;17.80
37678;DHT22;23517;50.390;8.616;2022-07-06T07:50:23;30.40;16.80
37678;DHT22;23517;50.390;8.616;2022-07-06T07:52:50;30.00;16.60
37678;DHT22;23517;50.390;8.616;2022-07-06T07:55:16;30.00;16.10
37678;DHT22;23517;50.390;8.616;2022-07-06T07:58:03;29.90;15.70
37678;DHT22;23517;50.390;8.616;2022-07-06T08:00:30;30.20;16.00
37678;DHT22;23517;50.390;8.616;2022-07-06T08:02:57;30.80;15.20
37678;DHT22;23517;50.390;8.616;2022-07-06T08:05:24;31.30;14.40
37678;DHT22;23517;50.390;8.616;2022-07-06T08:07:51;32.10;14.50
37678;DHT22;23517;50.390;8.616;2022-07-06T08:10:19;32.00;14.20
37678;DHT22;23517;50.390;8.616;2022-07-06T08:12:46;31.90;14.00
37678;DHT22;23517;50.390;8.616;2022-07-06T08:15:12;31.50;14.10
37678;DHT22;23517;50.390;8.616;2022-07-06T08:17:39;32.10;13.60
37678;DHT22;23517;50.390;8.616;2022-07-06T08:20:07;32.00;13.60
37678;DHT22;23517;50.390;8.616;2022-07-06T08:22:37;32.10;14.00
37678;DHT22;23517;50.390;8.616;2022-07-06T08:25:04;33.40;12.90
37678;DHT22;23517;50.390;8.616;2022-07-06T08:27:31;32.90;13.50
37678;DHT22;23517;50.390;8.616;2022-07-06T08:35:14;26.70;18.40
37678;DHT22;23517;50.390;8.616;2022-07-06T08:37:41;25.70;19.80
37678;DHT22;23517;50.390;8.616;2022-07-06T08:40:08;26.70;18.40
37678;DHT22;23517;50.390;8.616;2022-07-06T08:42:36;27.80;17.50
37678;DHT22;23517;50.390;8.616;2022-07-06T08:45:06;29.00;16.90
37678;DHT22;23517;50.390;8.616;2022-07-06T08:47:35;30.80;14.90
37678;DHT22;23517;50.390;8.616;2022-07-06T08:50:04;32.40;13.00
37678;DHT22;23517;50.390;8.616;2022-07-06T08:52:32;33.60;12.20
37678;DHT22;23517;50.390;8.616;2022-07-06T08:54:59;34.50;10.50
37678;DHT22;23517;50.390;8.616;2022-07-06T08:57:28;33.20;11.40
37678;DHT22;23517;50.390;8.616;2022-07-06T08:59:55;34.20;11.70
37678;DHT22;23517;50.390;8.616;2022-07-06T09:02:25;33.80;11.00
37678;DHT22;23517;50.390;8.616;2022-07-06T09:04:56;33.20;11.60
37678;DHT22;23517;50.390;8.616;2022-07-06T09:07:28;33.20;11.70
37678;DHT22;23517;50.390;8.616;2022-07-06T09:10:17;31.90;12.00
37678;DHT22;23517;50.390;8.616;2022-07-06T09:12:45;30.20;13.40
37678;DHT22;23517;50.390;8.616;2022-07-06T09:15:12;28.20;15.40
37678;DHT22;23517;50.390;8.616;2022-07-06T09:17:40;27.60;15.90
37678;DHT22;23517;50.390;8.616;2022-07-06T09:20:09;28.30;15.40
37678;DHT22;23517;50.390;8.616;2022-07-06T09:22:38;29.90;14.30
37678;DHT22;23517;50.390;8.616;2022-07-06T09:25:10;30.90;12.70
37678;DHT22;23517;50.390;8.616;2022-07-06T09:27:46;31.40;12.30
37678;DHT22;23517;50.390;8.616;2022-07-06T09:30:16;32.70;11.60
37678;DHT22;23517;50.390;8.616;2022-07-06T09:32:48;33.80;10.30
37678;DHT22;23517;50.390;8.616;2022-07-06T09:35:22;34.30;10.70
37678;DHT22;23517;50.390;8.616;2022-07-06T09:38:03;33.00;11.70
37678;DHT22;23517;50.390;8.616;2022-07-06T09:40:36;31.80;12.10
37678;DHT22;23517;50.390;8.616;2022-07-06T09:43:08;30.00;14.40
37678;DHT22;23517;50.390;8.616;2022-07-06T09:45:42;28.30;15.00
37678;DHT22;23517;50.390;8.616;2022-07-06T09:48:14;28.70;14.60
37678;DHT22;23517;50.390;8.616;2022-07-06T09:50:56;29.40;14.10
37678;DHT22;23517;50.390;8.616;2022-07-06T09:53:30;31.20;13.10
37678;DHT22;23517;50.390;8.616;2022-07-06T09:55:57;31.70;11.40
37678;DHT22;23517;50.390;8.616;2022-07-06T09:58:28;31.30;12.50
37678;DHT22;23517;50.390;8.616;2022-07-06T10:03:54;27.40;15.00
37678;DHT22;23517;50.390;8.616;2022-07-06T10:06:23;27.80;14.90
37678;DHT22;23517;50.390;8.616;2022-07-06T10:08:53;27.70;14.60
37678;DHT22;23517;50.390;8.616;2022-07-06T10:11:22;27.70;14.50
37678;DHT22;23517;50.390;8.616;2022-07-06T10:13:54;28.40;13.10
37678;DHT22;23517;50.390;8.616;2022-07-06T10:16:24;28.50;13.80
37678;DHT22;23517;50.390;8.616;2022-07-06T10:18:52;28.30;13.70
37678;DHT22;23517;50.390;8.616;2022-07-06T10:21:22;27.50;14.70
37678;DHT22;23517;50.390;8.616;2022-07-06T10:23:49;27.00;15.70
37678;DHT22;23517;50.390;8.616;2022-07-06T10:26:17;26.70;16.20
37678;DHT22;23517;50.390;8.616;2022-07-06T10:28:45;26.30;17.70
37678;DHT22;23517;50.390;8.616;2022-07-06T10:31:14;26.40;18.10
37678;DHT22;23517;50.390;8.616;2022-07-06T10:33:43;26.30;17.10
37678;DHT22;23517;50.390;8.616;2022-07-06T10:36:14;25.80;17.70
37678;DHT22;23517;50.390;8.616;2022-07-06T10:38:51;25.30;18.80
37678;DHT22;23517;50.390;8.616;2022-07-06T10:43:56;25.90;16.90
37678;DHT22;23517;50.390;8.616;2022-07-06T10:46:28;26.00;17.00
37678;DHT22;23517;50.390;8.616;2022-07-06T10:48:56;25.20;18.30
37678;DHT22;23517;50.390;8.616;2022-07-06T10:51:25;25.00;18.70
37678;DHT22;23517;50.390;8.616;2022-07-06T10:53:57;24.80;19.00
37678;DHT22;23517;50.390;8.616;2022-07-06T10:56:57;24.50;18.90
37678;DHT22;23517;50.390;8.616;2022-07-06T10:59:35;24.30;19.50
37678;DHT22;23517;50.390;8.616;2022-07-06T11:02:15;24.40;18.50
37678;DHT22;23517;50.390;8.616;2022-07-06T11:04:48;24.10;18.70
37678;DHT22;23517;50.390;8.616;2022-07-06T11:07:17;24.10;18.50
37678;DHT22;23517;50.390;8.616;2022-07-06T11:09:55;24.20;17.60
37678;DHT22;23517;50.390;8.616;2022-07-06T11:12:23;24.20;17.70
37678;DHT22;23517;50.390;8.616;2022-07-06T11:14:51;24.20;17.00
37678;DHT22;23517;50.390;8.616;2022-07-06T11:17:19;24.10;17.00
37678;DHT22;23517;50.390;8.616;2022-07-06T11:19:50;24.40;17.80
37678;DHT22;23517;50.390;8.616;2022-07-06T11:22:22;24.70;17.90
37678;DHT22;23517;50.390;8.616;2022-07-06T11:24:51;24.50;18.90
37678;DHT22;23517;50.390;8.616;2022-07-06T11:27:23;24.20;18.90
37678;DHT22;23517;50.390;8.616;2022-07-06T11:29:49;23.90;19.10
37678;DHT22;23517;50.390;8.616;2022-07-06T11:32:23;23.90;19.70
37678;DHT22;23517;50.390;8.616;2022-07-06T11:34:51;24.00;19.00
37678;DHT22;23517;50.390;8.616;2022-07-06T11:37:18;24.30;18.70
37678;DHT22;23517;50.390;8.616;2022-07-06T11:39:46;24.20;18.10
37678;DHT22;23517;50.390;8.616;2022-07-06T11:42:15;24.30;18.10
37678;DHT22;23517;50.390;8.616;2022-07-06T11:44:45;24.20;18.30
37678;DHT22;23517;50.390;8.616;2022-07-06T11:47:12;24.30;18.50
37678;DHT22;23517;50.390;8.616;2022-07-06T11:49:43;24.40;17.60
37678;DHT22;23517;50.390;8.616;2022-07-06T11:52:13;24.30;18.10
37678;DHT22;23517;50.390;8.616;2022-07-06T11:54:41;24.00;19.80
37678;DHT22;23517;50.390;8.616;2022-07-06T11:57:09;24.10;19.80
37678;DHT22;23517;50.390;8.616;2022-07-06T11:59:39;24.00;19.50
37678;DHT22;23517;50.390;8.616;2022-07-06T12:02:11;24.10;19.90
37678;DHT22;23517;50.390;8.616;2022-07-06T12:04:43;24.20;19.50
37678;DHT22;23517;50.390;8.616;2022-07-06T12:07:13;24.40;19.40
37678;DHT22;23517;50.390;8.616;2022-07-06T12:09:42;24.70;19.00
37678;DHT22;23517;50.390;8.616;2022-07-06T12:12:11;24.50;19.00
37678;DHT22;23517;50.390;8.616;2022-07-06T12:14:39;24.30;18.50
37678;DHT22;23517;50.390;8.616;2022-07-06T12:17:12;23.80;19.10
37678;DHT22;23517;50.390;8.616;2022-07-06T12:19:43;23.50;19.80
37678;DHT22;23517;50.390;8.616;2022-07-06T12:22:10;23.60;20.00
37678;DHT22;23517;50.390;8.616;2022-07-06T12:24:37;23.50;19.70
37678;DHT22;23517;50.390;8.616;2022-07-06T12:27:17;23.80;19.70
37678;DHT22;23517;50.390;8.616;2022-07-06T12:29:47;23.70;19.90
37678;DHT22;23517;50.390;8.616;2022-07-06T12:32:19;23.80;19.70
37678;DHT22;23517;50.390;8.616;2022-07-06T12:35:03;24.00;19.50
37678;DHT22;23517;50.390;8.616;2022-07-06T12:37:31;24.30;19.60
37678;DHT22;23517;50.390;8.616;2022-07-06T12:39:58;24.40;19.00
37678;DHT22;23517;50.390;8.616;2022-07-06T12:42:25;24.40;17.80
37678;DHT22;23517;50.390;8.616;2022-07-06T12:44:52;24.10;19.00
37678;DHT22;23517;50.390;8.616;2022-07-06T12:47:21;24.10;20.00
37678;DHT22;23517;50.390;8.616;2022-07-06T12:50:10;23.90;19.90
37678;DHT22;23517;50.390;8.616;2022-07-06T12:52:37;23.90;20.20
37678;DHT22;23517;50.390;8.616;2022-07-06T12:55:06;24.00;19.80
37678;DHT22;23517;50.390;8.616;2022-07-06T12:57:46;24.00;19.10
37678;DHT22;23517;50.390;8.616;2022-07-06T13:00:17;24.00;19.40
37678;DHT22;23517;50.390;8.616;2022-07-06T13:02:46;23.80;19.10
37678;DHT22;23517;50.390;8.616;2022-07-06T13:05:49;23.50;19.60
37678;DHT22;23517;50.390;8.616;2022-07-06T13:08:16;23.40;19.60
37678;DHT22;23517;50.390;8.616;2022-07-06T13:10:42;23.20;20.10
37678;DHT22;23517;50.390;8.616;2022-07-06T13:13:11;22.90;20.90
37678;DHT22;23517;50.390;8.616;2022-07-06T13:15:41;23.00;20.60
37678;DHT22;23517;50.390;8.616;2022-07-06T13:18:09;23.20;20.30
37678;DHT22;23517;50.390;8.616;2022-07-06T13:20:40;23.40;20.00
37678;DHT22;23517;50.390;8.616;2022-07-06T13:23:08;23.60;20.10
37678;DHT22;23517;50.390;8.616;2022-07-06T13:25:34;23.60;20.50
37678;DHT22;23517;50.390;8.616;2022-07-06T13:28:01;23.50;20.80
37678;DHT22;23517;50.390;8.616;2022-07-06T13:30:28;23.50;20.70
37678;DHT22;23517;50.390;8.616;2022-07-06T13:32:55;23.50;20.70
37678;DHT22;23517;50.390;8.616;2022-07-06T13:35:23;23.30;20.90
37678;DHT22;23517;50.390;8.616;2022-07-06T13:37:50;23.10;20.70
37678;DHT22;23517;50.390;8.616;2022-07-06T13:40:17;22.90;20.40
37678;DHT22;23517;50.390;8.616;2022-07-06T13:42:44;22.80;20.00
37678;DHT22;23517;50.390;8.616;2022-07-06T13:45:10;22.80;20.30
37678;DHT22;23517;50.390;8.616;2022-07-06T13:47:37;22.90;20.00
37678;DHT22;23517;50.390;8.616;2022-07-06T13:50:04;23.10;20.20
37678;DHT22;23517;50.390;8.616;2022-07-06T13:52:31;22.90;20.20
37678;DHT22;23517;50.390;8.616;2022-07-06T13:54:58;22.90;20.10
37678;DHT22;23517;50.390;8.616;2022-07-06T13:57:27;23.00;19.60
37678;DHT22;23517;50.390;8.616;2022-07-06T13:59:54;23.00;20.10
37678;DHT22;23517;50.390;8.616;2022-07-06T14:02:21;23.10;19.70
37678;DHT22;23517;50.390;8.616;2022-07-06T14:04:50;23.20;20.40
37678;DHT22;23517;50.390;8.616;2022-07-06T14:07:17;23.30;21.00
37678;DHT22;23517;50.390;8.616;2022-07-06T14:09:46;23.30;20.40
37678;DHT22;23517;50.390;8.616;2022-07-06T14:12:18;23.30;21.10
37678;DHT22;23517;50.390;8.616;2022-07-06T14:14:45;23.50;20.60
37678;DHT22;23517;50.390;8.616;2022-07-06T14:17:12;23.80;20.40
37678;DHT22;23517;50.390;8.616;2022-07-06T14:19:39;23.50;20.90
37678;DHT22;23517;50.390;8.616;2022-07-06T14:22:06;23.20;21.50
37678;DHT22;23517;50.390;8.616;2022-07-06T14:24:32;23.20;20.90
37678;DHT22;23517;50.390;8.616;2022-07-06T14:27:01;23.10;21.00
37678;DHT22;23517;50.390;8.616;2022-07-06T14:29:27;23.20;21.10
37678;DHT22;23517;50.390;8.616;2022-07-06T14:31:54;23.10;21.00
37678;DHT22;23517;50.390;8.616;2022-07-06T14:34:21;22.70;21.70
37678;DHT22;23517;50.390;8.616;2022-07-06T14:36:48;22.60;21.70
37678;DHT22;23517;50.390;8.616;2022-07-06T14:39:15;22.20;22.30
37678;DHT22;23517;50.390;8.616;2022-07-06T14:41:41;22.30;22.60
37678;DHT22;23517;50.390;8.616;2022-07-06T14:44:08;22.20;22.90
37678;DHT22;23517;50.390;8.616;2022-07-06T14:46:34;22.30;22.80
37678;DHT22;23517;50.390;8.616;2022-07-06T14:49:02;22.40;21.90
37678;DHT22;23517;50.390;8.616;2022-07-06T14:51:28;22.50;22.80
37678;DHT22;23517;50.390;8.616;2022-07-06T14:53:55;22.60;21.60
37678;DHT22;23517;50.390;8.616;2022-07-06T14:56:22;22.80;21.10
37678;DHT22;23517;50.390;8.616;2022-07-06T14:58:48;22.80;21.10
37678;DHT22;23517;50.390;8.616;2022-07-06T15:01:35;22.70;21.20
37678;DHT22;23517;50.390;8.616;2022-07-06T15:04:02;22.60;21.60
37678;DHT22;23517;50.390;8.616;2022-07-06T15:06:29;22.70;21.50
37678;DHT22;23517;50.390;8.616;2022-07-06T15:09:15;22.70;21.70
37678;DHT22;23517;50.390;8.616;2022-07-06T15:11:42;22.60;22.20
37678;DHT22;23517;50.390;8.616;2022-07-06T15:14:12;22.60;22.50
37678;DHT22;23517;50.390;8.616;2022-07-06T15:16:39;22.70;23.20
37678;DHT22;23517;50.390;8.616;2022-07-06T15:19:05;22.90;22.70
37678;DHT22;23517;50.390;8.616;2022-07-06T15:21:33;23.10;23.00
37678;DHT22;23517;50.390;8.616;2022-07-06T15:24:00;22.90;22.20
37678;DHT22;23517;50.390;8.616;2022-07-06T15:26:27;22.90;22.70
37678;DHT22;23517;50.390;8.616;2022-07-06T15:28:53;22.60;23.10
37678;DHT22;23517;50.390;8.616;2022-07-06T15:31:20;22.70;23.20
37678;DHT22;23517;50.390;8.616;2022-07-06T15:33:48;22.80;22.90
37678;DHT22;23517;50.390;8.616;2022-07-06T15:36:16;22.80;22.40
37678;DHT22;23517;50.390;8.616;2022-07-06T15:38:42;22.60;22.50
37678;DHT22;23517;50.390;8.616;2022-07-06T15:41:10;22.40;23.00
37678;DHT22;23517;50.390;8.616;2022-07-06T15:43:36;22.60;22.60
37678;DHT22;23517;50.390;8.616;2022-07-06T15:46:03;22.50;23.10
37678;DHT22;23517;50.390;8.616;2022-07-06T15:48:31;22.60;22.30